createdAt,value
2023-02-22T00:01:49.992Z,22.17
2023-02-22T00:04:39.491Z,18.90
2023-02-22T00:07:26.664Z,17.42
2023-02-22T00:10:17.328Z,18.80
2023-02-22T00:13:07.040Z,22.42
2023-02-22T00:15:54.633Z,20.17
2023-02-22T00:18:42.091Z,14.13
2023-02-22T00:21:31.034Z,21.45
2023-02-22T00:24:20.357Z,20.82
2023-02-22T00:27:07.710Z,20.08
2023-02-22T00:29:56.427Z,21.93
2023-02-22T00:32:44.494Z,28.07
2023-02-22T00:35:32.556Z,21.70
2023-02-22T00:38:20.237Z,20.68
2023-02-22T00:41:07.717Z,24.37
2023-02-22T00:43:54.782Z,22.67
2023-02-22T00:46:42.385Z,24.77
2023-02-22T00:49:29.809Z,24.35
2023-02-22T00:52:17.153Z,25.68
2023-02-22T00:55:07.688Z,22.48
2023-02-22T00:57:55.624Z,21.60
2023-02-22T01:00:43.917Z,25.52
2023-02-22T01:03:32.127Z,23.60
2023-02-22T01:06:19.336Z,29.80
2023-02-22T01:09:07.705Z,28.83
2023-02-22T01:11:56.011Z,27.90
2023-02-22T01:14:43.428Z,31.80
2023-02-22T01:17:31.014Z,30.45
2023-02-22T01:20:19.100Z,37.00
2023-02-22T01:23:07.825Z,30.68
2023-02-22T01:25:55.117Z,33.58
2023-02-22T01:28:42.522Z,34.85
2023-02-22T01:31:30.272Z,32.75
2023-02-22T01:34:19.022Z,31.75
2023-02-22T01:37:09.191Z,35.20
2023-02-22T01:39:56.682Z,35.25
2023-02-22T01:42:45.267Z,34.58
2023-02-22T01:45:35.908Z,34.45
2023-02-22T01:48:44.480Z,32.20
2023-02-22T01:51:38.003Z,32.42
2023-02-22T01:54:28.529Z,38.45
2023-02-22T01:57:29.847Z,36.93
2023-02-22T02:00:21.209Z,34.15
2023-02-22T02:03:11.244Z,36.77
2023-02-22T02:06:01.775Z,32.70
2023-02-22T02:09:14.718Z,37.45
2023-02-22T02:12:04.182Z,36.45
2023-02-22T02:14:51.452Z,37.55
2023-02-22T02:17:38.701Z,36.40
2023-02-22T02:20:50.502Z,38.00
2023-02-22T02:24:00.182Z,40.98
2023-02-22T02:27:22.888Z,39.33
2023-02-22T02:30:25.262Z,41.23
2023-02-22T02:33:38.497Z,42.03
2023-02-22T02:36:34.144Z,42.08
2023-02-22T02:39:33.500Z,47.00
2023-02-22T02:42:24.290Z,42.60
2023-02-22T02:45:15.092Z,42.30
2023-02-22T02:48:04.630Z,40.75
2023-02-22T02:50:53.377Z,43.90
2023-02-22T02:53:43.795Z,46.53
2023-02-22T02:56:31.163Z,47.40
2023-02-22T02:59:38.278Z,42.17
2023-02-22T03:02:34.472Z,49.63
2023-02-22T03:05:40.888Z,32.28
2023-02-22T03:08:37.219Z,48.05
2023-02-22T03:11:28.475Z,49.85
2023-02-22T03:14:27.940Z,54.67
2023-02-22T03:17:30.392Z,53.30
2023-02-22T03:20:42.360Z,56.50
2023-02-22T03:23:45.111Z,58.30
2023-02-22T03:26:41.682Z,62.58
2023-02-22T03:29:32.852Z,53.70
2023-02-22T03:32:23.195Z,67.60
2023-02-22T03:35:13.463Z,62.10
2023-02-22T03:38:03.872Z,59.08
2023-02-22T03:40:55.368Z,67.08
2023-02-22T03:43:45.602Z,61.75
2023-02-22T03:46:35.889Z,53.85
2023-02-22T03:49:38.265Z,61.28
2023-02-22T03:52:25.573Z,58.13
2023-02-22T03:55:16.087Z,58.48
2023-02-22T03:58:06.306Z,62.95
2023-02-22T04:00:53.802Z,63.23
2023-02-22T04:03:42.153Z,69.45
2023-02-22T04:06:30.008Z,58.38
2023-02-22T04:09:18.727Z,68.95
2023-02-22T04:12:07.765Z,76.47
2023-02-22T04:14:55.056Z,72.97
2023-02-22T04:17:42.858Z,76.35
2023-02-22T04:20:31.776Z,73.80
2023-02-22T04:23:19.025Z,71.77
2023-02-22T04:26:06.488Z,76.47
2023-02-22T04:28:53.801Z,74.30
2023-02-22T04:31:41.479Z,70.15
2023-02-22T04:34:29.027Z,69.97
2023-02-22T04:37:16.538Z,69.07
2023-02-22T04:40:06.912Z,74.85
2023-02-22T04:42:54.259Z,72.10
2023-02-22T04:45:44.774Z,67.35
2023-02-22T04:48:32.236Z,69.92
2023-02-22T04:51:20.217Z,75.57
2023-02-22T04:54:07.466Z,70.42
2023-02-22T04:56:55.129Z,75.57
2023-02-22T04:59:42.391Z,68.30
2023-02-22T05:02:29.943Z,77.62
2023-02-22T05:05:21.407Z,84.10
2023-02-22T05:08:08.865Z,73.45
2023-02-22T05:10:56.261Z,75.32
2023-02-22T05:13:43.760Z,70.87
2023-02-22T05:16:31.079Z,65.42
2023-02-22T05:19:18.299Z,67.15
2023-02-22T05:22:05.741Z,70.35
2023-02-22T05:24:52.990Z,67.42
2023-02-22T05:27:40.702Z,69.37
2023-02-22T05:30:31.299Z,60.90
2023-02-22T05:33:18.786Z,65.70
2023-02-22T05:36:07.639Z,68.00
2023-02-22T05:38:56.440Z,73.20
2023-02-22T05:41:43.761Z,67.08
2023-02-22T05:44:31.196Z,65.08
2023-02-22T05:47:18.674Z,63.35
2023-02-22T05:50:06.608Z,71.22
2023-02-22T05:52:53.986Z,61.73
2023-02-22T05:55:46.462Z,67.27
2023-02-22T05:58:33.350Z,62.75
2023-02-22T06:01:21.180Z,62.03
2023-02-22T06:04:09.110Z,67.82
2023-02-22T06:06:56.782Z,58.60
2023-02-22T06:09:43.977Z,59.65
2023-02-22T06:12:31.236Z,59.77
2023-02-22T06:15:19.803Z,69.53
2023-02-22T06:18:07.208Z,56.90
2023-02-22T06:20:54.555Z,59.45
2023-02-22T06:23:41.888Z,62.70
2023-02-22T06:26:29.350Z,61.37
2023-02-22T06:29:16.657Z,56.55
2023-02-22T06:32:03.749Z,62.25
2023-02-22T06:34:51.184Z,54.65
2023-02-22T06:37:38.768Z,66.05
2023-02-22T06:40:27.513Z,55.75
2023-02-22T06:43:14.450Z,74.25
2023-02-22T06:46:01.703Z,66.02
2023-02-22T06:48:50.458Z,66.30
2023-02-22T06:51:38.544Z,59.60
2023-02-22T06:54:27.007Z,61.98
2023-02-22T06:57:14.390Z,60.05
2023-02-22T07:00:01.851Z,63.35
2023-02-22T07:02:49.635Z,56.40
2023-02-22T07:05:36.630Z,57.03
2023-02-22T07:08:23.998Z,62.62
2023-02-22T07:11:11.636Z,64.27
2023-02-22T07:13:59.119Z,65.22
2023-02-22T07:16:46.388Z,58.38
2023-02-22T07:19:33.628Z,70.35
2023-02-22T07:22:21.056Z,58.10
2023-02-22T07:25:12.956Z,67.30
2023-02-22T07:28:01.165Z,60.15
2023-02-22T07:30:48.425Z,48.25
2023-02-22T07:33:35.882Z,54.35
2023-02-22T07:36:22.965Z,52.15
2023-02-22T07:39:11.083Z,49.20
2023-02-22T07:41:59.143Z,51.40
2023-02-22T07:44:46.247Z,47.70
2023-02-22T07:47:33.500Z,53.52
2023-02-22T07:50:22.752Z,49.58
2023-02-22T07:53:16.042Z,52.48
2023-02-22T07:56:05.710Z,52.50
2023-02-22T07:58:52.795Z,46.90
2023-02-22T08:01:40.092Z,48.92
2023-02-22T08:04:27.463Z,43.42
2023-02-22T08:07:14.896Z,43.52
2023-02-22T08:10:03.741Z,44.58
2023-02-22T08:12:51.404Z,41.58
2023-02-22T08:15:40.781Z,37.48
2023-02-22T08:18:28.280Z,39.38
2023-02-22T08:21:16.863Z,36.13
2023-02-22T08:24:04.430Z,26.50
2023-02-22T08:26:51.917Z,26.00
2023-02-22T08:29:39.084Z,24.72
2023-02-22T08:32:26.522Z,25.15
2023-02-22T08:35:14.356Z,27.65
2023-02-22T08:38:04.809Z,24.37
2023-02-22T08:40:52.505Z,26.52
2023-02-22T08:43:39.737Z,24.43
2023-02-22T08:46:26.956Z,28.98
2023-02-22T08:49:14.595Z,30.43
2023-02-22T08:52:01.934Z,27.02
2023-02-22T08:54:49.430Z,24.02
2023-02-22T08:57:36.600Z,22.13
2023-02-22T09:00:29.512Z,26.27
2023-02-22T09:03:17.092Z,26.05
2023-02-22T09:06:07.193Z,25.95
2023-02-22T09:08:54.538Z,22.58
2023-02-22T09:11:41.770Z,18.17
2023-02-22T09:14:29.318Z,19.05
2023-02-22T09:17:16.801Z,18.30
2023-02-22T09:20:05.223Z,20.08
2023-02-22T09:22:52.921Z,18.77
2023-02-22T09:25:43.813Z,22.87
2023-02-22T09:28:30.952Z,17.60
2023-02-22T09:31:18.448Z,18.48
2023-02-22T09:34:09.951Z,18.37
2023-02-22T09:36:58.286Z,17.27
2023-02-22T09:39:46.358Z,17.48
2023-02-22T09:42:39.207Z,14.05
2023-02-22T09:45:32.784Z,16.12
2023-02-22T09:48:22.654Z,14.87
2023-02-22T09:51:15.106Z,16.00
2023-02-22T09:54:05.390Z,16.77
2023-02-22T09:56:57.400Z,14.90
2023-02-22T09:59:48.384Z,16.65
2023-02-22T10:02:38.574Z,17.52
2023-02-22T10:05:29.144Z,16.17
2023-02-22T10:08:19.105Z,17.82
2023-02-22T10:11:26.407Z,22.50
2023-02-22T10:14:16.891Z,22.73
2023-02-22T10:17:19.034Z,22.35
2023-02-22T10:20:29.309Z,24.20
2023-02-22T10:23:25.804Z,23.47
2023-02-22T10:26:16.658Z,25.70
2023-02-22T10:29:18.790Z,28.52
2023-02-22T10:32:09.034Z,27.25
2023-02-22T10:34:57.178Z,29.07
2023-02-22T10:37:45.536Z,32.67
2023-02-22T10:40:33.174Z,30.25
2023-02-22T10:43:20.780Z,40.55
2023-02-22T10:46:11.397Z,32.83
2023-02-22T10:49:04.594Z,41.68
2023-02-22T10:51:54.891Z,36.08
2023-02-22T10:54:45.230Z,35.17
2023-02-22T10:57:35.818Z,32.88
2023-02-22T11:00:32.144Z,28.75
2023-02-22T11:03:22.892Z,29.37
2023-02-22T11:06:21.874Z,30.65
2023-02-22T11:09:12.465Z,28.75
2023-02-22T11:12:11.477Z,27.35
2023-02-22T11:15:00.737Z,27.75
2023-02-22T11:17:50.637Z,26.15
2023-02-22T11:20:40.193Z,27.93
2023-02-22T11:23:27.495Z,24.15
2023-02-22T11:26:19.312Z,22.75
2023-02-22T11:29:15.910Z,24.45
2023-02-22T11:32:22.264Z,26.90
2023-02-22T11:35:50.277Z,27.27
2023-02-22T11:38:43.802Z,23.83
2023-02-22T11:41:35.477Z,27.52
2023-02-22T11:44:31.701Z,27.45
2023-02-22T11:47:18.681Z,25.87
2023-02-22T11:50:09.192Z,25.52
2023-02-22T11:53:03.767Z,24.40
2023-02-22T11:56:22.762Z,24.43
2023-02-22T11:59:16.811Z,31.82
2023-02-22T12:02:51.950Z,27.82
2023-02-22T12:05:42.812Z,25.25
2023-02-22T12:08:33.155Z,25.72
2023-02-22T12:11:26.285Z,21.30
2023-02-22T12:14:30.202Z,25.02
2023-02-22T12:17:48.177Z,24.05
2023-02-22T12:20:37.795Z,25.57
2023-02-22T12:23:44.776Z,25.88
2023-02-22T12:26:41.174Z,26.80
2023-02-22T12:29:37.566Z,24.72
2023-02-22T12:32:41.720Z,24.02
2023-02-22T12:35:40.885Z,28.00
2023-02-22T12:38:40.587Z,29.67
2023-02-22T12:41:33.553Z,24.05
2023-02-22T12:44:38.882Z,27.58
2023-02-22T12:47:29.257Z,28.45
2023-02-22T12:50:28.861Z,28.55
2023-02-22T12:53:20.118Z,29.98
2023-02-22T12:56:28.562Z,27.90
2023-02-22T12:59:21.385Z,30.27
2023-02-22T13:02:23.294Z,29.72
2023-02-22T13:05:18.257Z,32.03
2023-02-22T13:08:24.010Z,29.02
2023-02-22T13:11:23.324Z,34.33
2023-02-22T13:14:36.106Z,35.38
2023-02-22T13:17:41.652Z,30.95
2023-02-22T13:20:31.864Z,28.67
2023-02-22T13:23:34.510Z,27.45
2023-02-22T13:26:34.289Z,31.10
2023-02-22T13:29:45.935Z,32.63
2023-02-22T13:32:57.897Z,28.98
2023-02-22T13:35:56.648Z,27.65
2023-02-22T13:39:05.456Z,30.80
2023-02-22T13:42:01.460Z,26.60
2023-02-22T13:45:24.044Z,28.40
2023-02-22T13:48:46.286Z,31.82
2023-02-22T13:51:36.779Z,29.80
2023-02-22T13:54:28.359Z,26.62
2023-02-22T13:57:28.156Z,33.18
2023-02-22T14:00:23.024Z,26.30
2023-02-22T14:03:19.635Z,33.98
2023-02-22T14:06:12.005Z,32.95
2023-02-22T14:09:02.058Z,32.30
2023-02-22T14:11:54.746Z,34.43
2023-02-22T14:14:45.019Z,28.90
2023-02-22T14:17:32.789Z,33.15
2023-02-22T14:20:24.983Z,30.17
2023-02-22T14:23:42.419Z,32.17
2023-02-22T14:29:21.654Z,33.67
2023-02-22T14:32:14.043Z,30.77
2023-02-22T14:35:25.479Z,31.85
2023-02-22T14:38:01.173Z,28.52
2023-02-22T14:40:50.283Z,29.85
2023-02-22T14:43:39.163Z,23.22
2023-02-22T14:46:29.820Z,27.37
2023-02-22T14:49:21.800Z,22.25
2023-02-22T14:52:27.427Z,27.77
2023-02-22T14:55:26.624Z,27.02
2023-02-22T14:58:22.845Z,29.67
2023-02-22T15:01:31.271Z,28.47
2023-02-22T15:04:26.798Z,24.15
2023-02-22T15:07:32.069Z,28.90
2023-02-22T15:10:50.036Z,27.50
2023-02-22T15:13:40.534Z,32.17
2023-02-22T15:16:31.273Z,33.60
2023-02-22T15:19:27.538Z,32.50
2023-02-22T15:22:24.140Z,32.70
2023-02-22T15:25:14.679Z,34.00
2023-02-22T15:28:04.765Z,32.08
2023-02-22T15:30:55.017Z,33.50
2023-02-22T15:33:42.345Z,32.20
2023-02-22T15:36:31.173Z,30.00
2023-02-22T15:39:29.611Z,28.10
2023-02-22T15:42:22.869Z,29.20
2023-02-22T15:45:13.233Z,33.58
2023-02-22T15:48:00.595Z,31.90
2023-02-22T15:51:04.902Z,39.03
2023-02-22T15:53:52.497Z,32.65
2023-02-22T15:56:41.743Z,30.75
2023-02-22T15:59:30.704Z,30.75
2023-02-22T16:02:41.111Z,31.90
2023-02-22T16:05:31.600Z,27.65
2023-02-22T16:08:29.438Z,27.40
2023-02-22T16:11:27.368Z,33.10
2023-02-22T16:14:33.220Z,31.57
2023-02-22T16:17:28.563Z,31.25
2023-02-22T16:20:19.080Z,29.45
2023-02-22T16:23:24.638Z,31.48
2023-02-22T16:26:27.044Z,29.15
2023-02-22T16:29:17.497Z,31.37
2023-02-22T16:32:04.931Z,30.20
2023-02-22T16:34:52.369Z,27.77
2023-02-22T16:37:39.683Z,30.97
2023-02-22T16:40:34.487Z,29.30
2023-02-22T16:43:26.150Z,33.18
2023-02-22T16:46:14.590Z,35.83
2023-02-22T16:49:03.407Z,31.10
2023-02-22T16:51:55.159Z,29.92
2023-02-22T16:54:48.144Z,29.45
2023-02-22T16:57:35.619Z,28.67
2023-02-22T17:00:26.800Z,29.77
2023-02-22T17:03:19.371Z,31.48
2023-02-22T17:06:07.219Z,31.55
2023-02-22T17:08:54.643Z,30.35
2023-02-22T17:11:42.709Z,30.27
2023-02-22T17:14:32.818Z,28.80
2023-02-22T17:17:21.709Z,27.32
2023-02-22T17:20:12.948Z,28.32
2023-02-22T17:23:06.600Z,31.52
2023-02-22T17:25:56.957Z,29.72
2023-02-22T17:28:46.028Z,26.70
2023-02-22T17:31:34.070Z,26.68
2023-02-22T17:34:24.905Z,32.50
2023-02-22T17:37:12.491Z,35.52
2023-02-22T17:40:00.120Z,29.52
2023-02-22T17:42:47.588Z,28.17
2023-02-22T17:45:36.426Z,30.30
2023-02-22T17:48:24.687Z,29.37
2023-02-22T17:51:13.465Z,28.65
2023-02-22T17:54:01.141Z,32.67
2023-02-22T17:56:48.347Z,31.93
2023-02-22T17:59:35.915Z,30.45
2023-02-22T18:02:23.371Z,27.42
2023-02-22T18:05:14.993Z,33.80
2023-02-22T18:08:02.224Z,29.05
2023-02-22T18:10:51.942Z,30.77
2023-02-22T18:13:40.932Z,29.98
2023-02-22T18:16:28.382Z,32.40
2023-02-22T18:19:17.572Z,37.88
2023-02-22T18:22:08.244Z,30.55
2023-02-22T18:25:00.154Z,35.52
2023-02-22T18:27:44.687Z,33.55
2023-02-22T18:30:32.266Z,31.05
2023-02-22T18:33:20.847Z,35.38
2023-02-22T18:36:09.977Z,34.18
2023-02-22T18:38:58.033Z,33.45
2023-02-22T18:41:47.482Z,35.00
2023-02-22T18:44:34.640Z,32.38
2023-02-22T18:47:22.762Z,34.33
2023-02-22T18:50:16.125Z,36.95
2023-02-22T18:53:03.409Z,32.78
2023-02-22T18:55:51.507Z,33.80
2023-02-22T18:58:39.420Z,37.00
2023-02-22T19:01:27.796Z,31.25
2023-02-22T19:04:15.060Z,37.60
2023-02-22T19:07:02.590Z,35.50
2023-02-22T19:09:52.221Z,32.15
2023-02-22T19:12:39.568Z,38.17
2023-02-22T19:15:26.845Z,33.45
2023-02-22T19:18:14.074Z,31.30
2023-02-22T19:21:05.354Z,32.95
2023-02-22T19:23:53.844Z,30.12
2023-02-22T19:26:42.994Z,33.42
2023-02-22T19:29:31.069Z,31.42
2023-02-22T19:32:18.481Z,32.13
2023-02-22T19:35:06.856Z,27.15
2023-02-22T19:37:56.787Z,33.73
2023-02-22T19:40:43.873Z,24.98
2023-02-22T19:43:31.359Z,30.50
2023-02-22T19:46:21.276Z,25.90
2023-02-22T19:49:10.201Z,25.00
2023-02-22T19:51:58.242Z,27.52
2023-02-22T19:54:45.812Z,25.20
2023-02-22T19:57:33.372Z,22.77
2023-02-22T20:00:24.420Z,24.67
2023-02-22T20:03:13.327Z,21.85
2023-02-22T20:06:00.566Z,23.90
2023-02-22T20:08:48.062Z,25.80
2023-02-22T20:11:35.440Z,23.42
2023-02-22T20:14:26.112Z,23.85
2023-02-22T20:17:13.206Z,24.52
2023-02-22T20:20:00.639Z,25.17
2023-02-22T20:22:48.181Z,23.67
2023-02-22T20:25:36.250Z,26.25
2023-02-22T20:28:25.071Z,33.10
2023-02-22T20:31:15.243Z,24.07
2023-02-22T20:34:04.949Z,22.10
2023-02-22T20:36:52.405Z,24.30
2023-02-22T20:39:39.967Z,24.18
2023-02-22T20:42:28.188Z,23.87
2023-02-22T20:45:16.139Z,23.75
2023-02-22T20:48:05.082Z,23.87
2023-02-22T20:50:52.846Z,28.50
2023-02-22T20:53:41.881Z,24.23
2023-02-22T20:56:31.481Z,23.73
2023-02-22T20:59:20.207Z,25.10
2023-02-22T21:02:08.650Z,32.33
2023-02-22T21:04:56.137Z,34.35
2023-02-22T21:07:43.420Z,31.02
2023-02-22T21:10:30.930Z,32.58
2023-02-22T21:13:18.133Z,31.23
2023-02-22T21:16:06.506Z,28.35
2023-02-22T21:18:55.488Z,36.63
2023-02-22T21:21:43.119Z,30.85
2023-02-22T21:24:30.987Z,35.03
2023-02-22T21:27:18.751Z,33.55
2023-02-22T21:30:06.956Z,40.90
2023-02-22T21:32:55.926Z,34.23
2023-02-22T21:35:45.128Z,37.17
2023-02-22T21:38:33.114Z,34.55
2023-02-22T21:41:22.133Z,34.45
2023-02-22T21:44:09.732Z,34.95
2023-02-22T21:46:57.155Z,35.03
2023-02-22T21:49:44.086Z,33.15
2023-02-22T21:52:31.592Z,38.63
2023-02-22T21:55:19.349Z,35.58
2023-02-22T21:58:07.229Z,39.88
2023-02-22T22:00:54.859Z,39.98
2023-02-22T22:03:43.203Z,37.75
2023-02-22T22:06:32.784Z,36.35
2023-02-22T22:09:22.848Z,35.80
2023-02-22T22:12:11.594Z,37.00
2023-02-22T22:15:03.685Z,41.10
2023-02-22T22:17:51.387Z,34.48
2023-02-22T22:20:38.960Z,33.92
2023-02-22T22:23:26.504Z,34.25
2023-02-22T22:26:17.089Z,35.75
2023-02-22T22:29:04.640Z,35.17
2023-02-22T22:31:52.706Z,37.50
2023-02-22T22:34:39.716Z,36.53
2023-02-22T22:37:32.427Z,36.10
2023-02-22T22:40:19.968Z,33.23
2023-02-22T22:43:07.502Z,35.30
2023-02-22T22:45:54.771Z,31.93
2023-02-22T22:48:42.377Z,32.17
2023-02-22T22:51:29.687Z,33.92
2023-02-22T22:54:17.098Z,31.37
2023-02-22T22:57:07.065Z,32.40
2023-02-22T22:59:54.605Z,35.95
2023-02-22T23:02:42.098Z,30.70
2023-02-22T23:05:29.933Z,33.65
2023-02-22T23:08:18.497Z,41.83
2023-02-22T23:11:09.094Z,40.10
2023-02-22T23:13:57.383Z,45.80
2023-02-22T23:16:45.373Z,40.35
2023-02-22T23:19:35.017Z,43.75
2023-02-22T23:22:22.654Z,39.73
2023-02-22T23:25:10.475Z,39.00
2023-02-22T23:27:57.682Z,43.78
2023-02-22T23:30:46.119Z,48.70
2023-02-22T23:33:33.314Z,41.13
2023-02-22T23:36:21.086Z,43.70
2023-02-22T23:39:08.264Z,39.48
2023-02-22T23:42:03.040Z,40.83
2023-02-22T23:44:51.952Z,39.20
2023-02-22T23:47:39.525Z,38.13
2023-02-22T23:50:29.257Z,34.45
2023-02-22T23:53:16.668Z,38.75
2023-02-22T23:56:06.677Z,40.12
2023-02-22T23:58:57.338Z,41.08
